createdAt,value
2017-05-03T00:00:11.176Z,16.28
2017-05-03T00:02:40.352Z,18.24
2017-05-03T00:05:08.825Z,19.26
2017-05-03T00:07:37.252Z,20.36
2017-05-03T00:10:05.613Z,19.78
2017-05-03T00:12:34.714Z,14.94
2017-05-03T00:15:03.797Z,17.26
2017-05-03T00:17:32.273Z,20.14
2017-05-03T00:20:00.738Z,19.00
2017-05-03T00:22:29.081Z,18.48
2017-05-03T00:24:57.727Z,18.74
2017-05-03T00:27:26.278Z,18.26
2017-05-03T00:29:54.752Z,17.80
2017-05-03T00:32:23.152Z,19.90
2017-05-03T00:34:51.491Z,18.76
2017-05-03T00:37:20.248Z,19.04
2017-05-03T00:39:48.659Z,21.40
2017-05-03T00:42:17.078Z,19.00
2017-05-03T00:44:45.462Z,17.20
2017-05-03T00:47:14.564Z,19.46
2017-05-03T00:49:42.934Z,22.04
2017-05-03T00:52:11.336Z,23.04
2017-05-03T00:54:39.706Z,18.84
2017-05-03T00:57:08.091Z,17.36
2017-05-03T00:59:36.490Z,18.98
2017-05-03T01:02:04.824Z,18.18
2017-05-03T01:04:33.362Z,19.10
2017-05-03T01:07:01.716Z,16.96
2017-05-03T01:09:30.085Z,17.78
2017-05-03T01:11:58.564Z,16.96
2017-05-03T01:14:26.900Z,19.58
2017-05-03T01:16:55.272Z,19.52
2017-05-03T01:19:23.727Z,17.52
2017-05-03T01:21:52.100Z,17.90
2017-05-03T01:24:20.478Z,19.68
2017-05-03T01:26:48.848Z,21.68
2017-05-03T01:29:17.291Z,21.48
2017-05-03T01:31:45.818Z,19.30
2017-05-03T01:34:14.200Z,24.00
2017-05-03T01:36:42.782Z,18.82
2017-05-03T01:39:11.156Z,21.68
2017-05-03T01:41:39.532Z,20.08
2017-05-03T01:44:08.118Z,19.72
2017-05-03T01:46:36.596Z,25.16
2017-05-03T01:49:05.055Z,22.68
2017-05-03T01:51:33.507Z,18.18
2017-05-03T01:54:02.290Z,18.12
2017-05-03T01:56:31.395Z,22.28
2017-05-03T01:58:59.772Z,18.14
2017-05-03T02:01:28.146Z,19.70
2017-05-03T02:03:56.502Z,18.64
2017-05-03T02:06:25.630Z,21.08
2017-05-03T02:08:54.220Z,19.90
2017-05-03T02:11:22.683Z,22.60
2017-05-03T02:13:51.641Z,21.84
2017-05-03T02:16:19.999Z,21.24
2017-05-03T02:18:48.391Z,21.48
2017-05-03T02:21:16.837Z,20.70
2017-05-03T02:23:45.199Z,21.82
2017-05-03T02:26:13.599Z,24.02
2017-05-03T02:28:41.969Z,20.42
2017-05-03T02:31:10.432Z,20.06
2017-05-03T02:33:38.889Z,21.90
2017-05-03T02:36:07.245Z,24.42
2017-05-03T02:38:36.362Z,23.58
2017-05-03T02:41:04.909Z,23.64
2017-05-03T02:43:33.261Z,23.24
2017-05-03T02:46:01.642Z,24.94
2017-05-03T02:48:29.984Z,25.72
2017-05-03T02:50:58.374Z,28.14
2017-05-03T02:53:26.822Z,29.60
2017-05-03T02:55:55.206Z,31.50
2017-05-03T02:58:22.779Z,27.98
2017-05-03T03:00:51.258Z,26.88
2017-05-03T03:03:19.706Z,28.52
2017-05-03T03:05:48.795Z,25.78
2017-05-03T03:08:17.355Z,27.86
2017-05-03T03:10:45.712Z,27.56
2017-05-03T03:13:14.198Z,29.42
2017-05-03T03:15:42.545Z,26.34
2017-05-03T03:18:10.986Z,32.42
2017-05-03T03:20:39.348Z,30.52
2017-05-03T03:23:07.835Z,29.74
2017-05-03T03:25:36.211Z,30.90
2017-05-03T03:28:04.596Z,32.32
2017-05-03T03:30:32.960Z,34.14
2017-05-03T03:33:01.307Z,30.02
2017-05-03T03:35:29.661Z,28.64
2017-05-03T03:37:58.042Z,33.40
2017-05-03T03:40:26.400Z,36.04
2017-05-03T03:42:54.907Z,30.48
2017-05-03T03:45:23.370Z,34.90
2017-05-03T03:47:51.754Z,36.48
2017-05-03T03:50:20.122Z,31.74
2017-05-03T03:52:48.474Z,32.52
2017-05-03T03:55:16.852Z,31.76
2017-05-03T03:57:45.223Z,31.30
2017-05-03T04:00:13.614Z,36.46
2017-05-03T04:02:42.023Z,35.48
2017-05-03T04:05:10.423Z,37.00
2017-05-03T04:07:38.805Z,34.30
2017-05-03T04:10:07.343Z,31.60
2017-05-03T04:12:35.703Z,33.92
2017-05-03T04:15:04.101Z,32.96
2017-05-03T04:17:33.208Z,33.16
2017-05-03T04:20:01.577Z,33.78
2017-05-03T04:22:29.998Z,35.18
2017-05-03T04:24:58.358Z,35.44
2017-05-03T04:27:44.398Z,32.70
2017-05-03T04:30:13.593Z,34.96
2017-05-03T04:32:42.040Z,31.00
2017-05-03T04:35:10.404Z,37.10
2017-05-03T04:37:38.818Z,32.60
2017-05-03T04:40:07.241Z,38.80
2017-05-03T04:42:35.715Z,34.54
2017-05-03T04:45:04.809Z,34.64
2017-05-03T04:47:33.995Z,33.20
2017-05-03T04:50:03.193Z,30.86
2017-05-03T04:52:32.327Z,29.42
2017-05-03T04:55:00.770Z,32.12
2017-05-03T04:57:29.155Z,35.86
2017-05-03T04:59:58.267Z,36.48
2017-05-03T05:02:26.649Z,35.94
2017-05-03T05:04:55.020Z,30.92
2017-05-03T05:07:23.440Z,29.42
2017-05-03T05:09:51.827Z,30.18
2017-05-03T05:12:20.207Z,30.02
2017-05-03T05:14:48.709Z,30.24
2017-05-03T05:17:17.787Z,34.50
2017-05-03T05:19:46.469Z,30.96
2017-05-03T05:22:14.821Z,34.56
2017-05-03T05:24:43.174Z,33.08
2017-05-03T05:27:11.687Z,29.62
2017-05-03T05:29:40.707Z,35.64
2017-05-03T05:32:10.185Z,32.28
2017-05-03T05:34:38.571Z,33.90
2017-05-03T05:37:11.603Z,31.24
2017-05-03T05:39:40.007Z,33.90
2017-05-03T05:42:08.406Z,40.36
2017-05-03T05:44:36.919Z,29.62
2017-05-03T05:47:06.007Z,32.62
2017-05-03T05:49:35.389Z,32.20
2017-05-03T05:52:03.732Z,33.70
2017-05-03T05:54:32.094Z,36.30
2017-05-03T05:57:00.489Z,30.28
2017-05-03T05:59:28.869Z,35.84
2017-05-03T06:01:57.271Z,30.12
2017-05-03T06:04:25.665Z,28.68
2017-05-03T06:06:54.113Z,29.92
2017-05-03T06:09:22.660Z,30.22
2017-05-03T06:11:51.754Z,32.36
2017-05-03T06:14:20.228Z,32.36
2017-05-03T06:16:48.644Z,28.60
2017-05-03T06:19:17.120Z,29.80
2017-05-03T06:21:45.547Z,28.18
2017-05-03T06:24:14.641Z,29.14
2017-05-03T06:26:43.828Z,28.84
2017-05-03T06:29:12.290Z,27.56
2017-05-03T06:31:41.662Z,34.62
2017-05-03T06:34:10.089Z,29.86
2017-05-03T06:36:38.538Z,29.48
2017-05-03T06:39:06.968Z,31.18
2017-05-03T06:41:35.352Z,34.32
2017-05-03T06:44:04.638Z,33.92
2017-05-03T06:46:33.841Z,29.48
2017-05-03T06:49:03.350Z,35.94
2017-05-03T06:51:31.905Z,33.34
2017-05-03T06:54:01.141Z,32.08
2017-05-03T06:56:29.516Z,32.44
2017-05-03T06:58:58.006Z,31.98
2017-05-03T07:01:27.346Z,27.20
2017-05-03T07:03:55.692Z,27.56
2017-05-03T07:06:24.210Z,27.96
2017-05-03T07:08:52.613Z,31.72
2017-05-03T07:11:21.047Z,28.42
2017-05-03T07:13:49.843Z,32.80
2017-05-03T07:16:18.210Z,30.38
2017-05-03T07:18:46.662Z,31.52
2017-05-03T07:21:15.042Z,31.94
2017-05-03T07:23:43.381Z,36.00
2017-05-03T07:26:12.482Z,33.94
2017-05-03T07:28:41.653Z,28.92
2017-05-03T07:31:10.032Z,31.80
2017-05-03T07:33:38.406Z,34.66
2017-05-03T07:36:06.761Z,32.60
2017-05-03T07:38:35.127Z,29.40
2017-05-03T07:41:03.898Z,32.18
2017-05-03T07:43:38.651Z,30.50
2017-05-03T07:46:07.066Z,31.46
2017-05-03T07:48:35.409Z,29.60
2017-05-03T07:51:03.807Z,30.60
2017-05-03T07:53:32.163Z,31.56
2017-05-03T07:56:00.537Z,36.82
2017-05-03T07:58:28.935Z,33.84
2017-05-03T08:00:57.283Z,34.02
2017-05-03T08:03:25.673Z,37.90
2017-05-03T08:05:54.048Z,31.38
2017-05-03T08:08:22.414Z,33.58
2017-05-03T08:10:50.797Z,34.10
2017-05-03T08:13:19.156Z,30.06
2017-05-03T08:15:47.600Z,34.46
2017-05-03T08:18:16.769Z,34.30
2017-05-03T08:20:45.155Z,29.38
2017-05-03T08:23:13.593Z,31.62
2017-05-03T08:25:41.962Z,28.82
2017-05-03T08:28:10.331Z,29.00
2017-05-03T08:30:38.689Z,28.54
2017-05-03T08:33:07.808Z,28.08
2017-05-03T08:35:36.183Z,29.00
2017-05-03T08:38:04.564Z,28.08
2017-05-03T08:40:32.920Z,26.98
2017-05-03T08:43:01.322Z,27.02
2017-05-03T08:45:29.702Z,26.48
2017-05-03T08:47:58.067Z,29.10
2017-05-03T08:50:40.267Z,26.30
2017-05-03T08:53:08.609Z,27.46
2017-05-03T08:55:36.968Z,28.88
2017-05-03T08:58:05.342Z,25.64
2017-05-03T09:00:33.710Z,25.88
2017-05-03T09:03:02.158Z,24.30
2017-05-03T09:05:30.500Z,22.92
2017-05-03T09:07:58.864Z,23.16
2017-05-03T09:10:27.240Z,23.34
2017-05-03T09:12:55.596Z,22.48
2017-05-03T09:15:24.011Z,21.44
2017-05-03T09:17:52.361Z,22.64
2017-05-03T09:20:20.710Z,24.12
2017-05-03T09:22:49.141Z,22.84
2017-05-03T09:25:17.512Z,19.52
2017-05-03T09:27:45.867Z,21.86
2017-05-03T09:30:14.251Z,20.68
2017-05-03T09:32:42.732Z,18.82
2017-05-03T09:35:11.092Z,20.54
2017-05-03T09:37:39.448Z,17.52
2017-05-03T09:40:07.837Z,16.74
2017-05-03T09:42:36.194Z,18.14
2017-05-03T09:45:04.556Z,17.04
2017-05-03T09:47:33.679Z,18.30
2017-05-03T09:50:02.037Z,21.18
2017-05-03T09:52:30.402Z,19.20
2017-05-03T09:54:59.490Z,17.84
2017-05-03T09:57:27.890Z,17.28
2017-05-03T09:59:56.249Z,18.76
2017-05-03T10:02:24.620Z,18.44
2017-05-03T10:04:53.005Z,17.18
2017-05-03T10:07:21.458Z,18.48
2017-05-03T10:09:50.191Z,17.22
2017-05-03T10:12:18.571Z,17.68
2017-05-03T10:14:46.981Z,17.50
2017-05-03T10:17:15.381Z,16.58
2017-05-03T10:19:43.810Z,16.06
2017-05-03T10:22:12.189Z,18.02
2017-05-03T10:24:40.869Z,15.92
2017-05-03T10:27:11.338Z,17.02
2017-05-03T10:29:39.715Z,15.52
2017-05-03T10:32:08.159Z,14.96
2017-05-03T10:34:36.562Z,15.42
2017-05-03T10:37:04.921Z,14.74
2017-05-03T10:39:33.417Z,15.04
2017-05-03T10:42:02.707Z,15.04
2017-05-03T10:44:31.094Z,13.72
2017-05-03T10:47:00.057Z,14.60
2017-05-03T10:49:28.457Z,15.56
2017-05-03T10:51:57.718Z,15.12
2017-05-03T10:54:26.089Z,13.80
2017-05-03T10:56:55.235Z,13.84
2017-05-03T10:59:23.781Z,13.70
2017-05-03T11:01:52.339Z,12.94
2017-05-03T11:04:20.977Z,13.32
2017-05-03T11:06:49.869Z,13.98
2017-05-03T11:09:18.259Z,13.08
2017-05-03T11:11:46.618Z,13.92
2017-05-03T11:14:14.999Z,13.16
2017-05-03T11:16:43.537Z,14.80
2017-05-03T11:19:11.928Z,14.68
2017-05-03T11:21:40.292Z,15.42
2017-05-03T11:24:09.290Z,13.44
2017-05-03T11:26:37.869Z,13.64
2017-05-03T11:29:06.260Z,14.30
2017-05-03T11:31:34.695Z,14.16
2017-05-03T11:34:03.252Z,14.98
2017-05-03T11:36:32.231Z,14.38
2017-05-03T11:39:00.670Z,16.06
2017-05-03T11:41:29.023Z,14.80
2017-05-03T11:43:57.432Z,13.66
2017-05-03T11:46:25.924Z,15.94
2017-05-03T11:48:54.305Z,14.68
2017-05-03T11:51:22.772Z,14.56
2017-05-03T11:53:51.889Z,13.68
2017-05-03T11:56:20.260Z,14.34
2017-05-03T11:58:48.662Z,14.56
2017-05-03T12:01:17.812Z,15.28
2017-05-03T12:03:46.949Z,14.78
2017-05-03T12:06:15.336Z,14.94
2017-05-03T12:08:43.768Z,14.20
2017-05-03T12:11:12.206Z,15.90
2017-05-03T12:13:40.660Z,13.38
2017-05-03T12:16:09.083Z,15.34
2017-05-03T12:18:37.931Z,20.38
2017-05-03T12:21:06.290Z,20.90
2017-05-03T12:23:34.661Z,18.24
2017-05-03T12:26:03.041Z,17.48
2017-05-03T12:28:31.397Z,20.20
2017-05-03T12:31:00.219Z,18.68
2017-05-03T12:33:28.587Z,22.84
2017-05-03T12:35:56.934Z,22.02
2017-05-03T12:38:25.307Z,16.92
2017-05-03T12:40:53.666Z,16.64
2017-05-03T12:43:22.101Z,21.46
2017-05-03T12:45:50.479Z,21.48
2017-05-03T12:48:18.826Z,23.06
2017-05-03T12:50:47.542Z,20.18
2017-05-03T12:53:15.906Z,24.88
2017-05-03T12:55:44.259Z,21.20
2017-05-03T12:58:12.677Z,20.18
2017-05-03T13:00:41.033Z,21.98
2017-05-03T13:03:10.137Z,19.70
2017-05-03T13:05:38.541Z,19.50
2017-05-03T13:08:06.922Z,19.28
2017-05-03T13:10:35.277Z,20.30
2017-05-03T13:13:03.657Z,19.08
2017-05-03T13:15:32.077Z,19.46
2017-05-03T13:18:00.447Z,20.54
2017-05-03T13:20:28.807Z,20.58
2017-05-03T13:22:57.204Z,18.82
2017-05-03T13:25:25.556Z,18.78
2017-05-03T13:27:53.927Z,19.56
2017-05-03T13:30:22.289Z,18.70
2017-05-03T13:32:50.688Z,19.50
2017-05-03T13:35:19.095Z,17.66
2017-05-03T13:37:47.587Z,17.76
2017-05-03T13:40:15.958Z,17.56
2017-05-03T13:42:44.323Z,17.10
2017-05-03T13:45:12.727Z,17.44
2017-05-03T13:47:41.110Z,17.14
2017-05-03T13:50:09.492Z,16.28
2017-05-03T13:52:37.950Z,18.38
2017-05-03T13:55:06.340Z,19.32
2017-05-03T13:57:34.685Z,17.46
2017-05-03T14:00:03.066Z,17.84
2017-05-03T14:02:31.422Z,16.68
2017-05-03T14:04:59.807Z,16.86
2017-05-03T14:07:28.218Z,17.84
2017-05-03T14:09:56.625Z,17.98
2017-05-03T14:12:25.061Z,20.04
2017-05-03T14:14:53.415Z,20.22
2017-05-03T14:17:21.790Z,25.90
2017-05-03T14:19:50.190Z,24.50
2017-05-03T14:22:18.616Z,23.46
2017-05-03T14:24:47.762Z,19.54
2017-05-03T14:27:16.129Z,21.44
2017-05-03T14:29:44.488Z,18.94
2017-05-03T14:32:13.024Z,17.42
2017-05-03T14:34:41.377Z,18.78
2017-05-03T14:37:09.768Z,18.74
2017-05-03T14:39:38.242Z,19.48
2017-05-03T14:42:06.625Z,19.46
2017-05-03T14:44:35.010Z,19.22
2017-05-03T14:47:04.143Z,18.30
2017-05-03T14:49:32.514Z,17.38
2017-05-03T14:52:00.955Z,16.80
2017-05-03T14:54:29.362Z,17.90
2017-05-03T14:56:57.717Z,17.18
2017-05-03T14:59:26.092Z,17.70
2017-05-03T15:01:54.486Z,16.94
2017-05-03T15:04:22.949Z,17.24
2017-05-03T15:06:51.356Z,17.82
2017-05-03T15:09:20.453Z,16.32
2017-05-03T15:11:48.911Z,15.52
2017-05-03T15:14:17.311Z,18.08
2017-05-03T15:16:46.434Z,16.32
2017-05-03T15:19:14.893Z,16.24
2017-05-03T15:21:43.256Z,17.64
2017-05-03T15:24:11.786Z,17.04
2017-05-03T15:26:40.956Z,16.64
2017-05-03T15:29:10.481Z,15.26
2017-05-03T15:31:38.870Z,14.52
2017-05-03T15:34:07.292Z,16.04
2017-05-03T15:36:36.039Z,16.34
2017-05-03T15:39:04.442Z,14.96
2017-05-03T15:41:32.806Z,16.42
2017-05-03T15:44:01.225Z,16.08
2017-05-03T15:46:30.448Z,18.18
2017-05-03T15:48:59.683Z,16.58
2017-05-03T15:51:28.333Z,16.48
2017-05-03T15:53:56.810Z,16.14
2017-05-03T15:56:25.338Z,14.76
2017-05-03T15:58:53.837Z,15.36
2017-05-03T16:01:22.390Z,16.72
2017-05-03T16:03:51.172Z,17.46
2017-05-03T16:06:20.330Z,15.78
2017-05-03T16:08:48.758Z,15.34
2017-05-03T16:11:17.143Z,14.70
2017-05-03T16:13:45.568Z,15.56
2017-05-03T16:16:13.979Z,17.20
2017-05-03T16:18:43.009Z,15.60
2017-05-03T16:21:11.397Z,15.26
2017-05-03T16:23:40.552Z,16.56
2017-05-03T16:26:08.974Z,15.94
2017-05-03T16:28:37.352Z,15.36
2017-05-03T16:31:06.510Z,14.88
2017-05-03T16:33:34.932Z,15.64
2017-05-03T16:36:04.070Z,18.04
2017-05-03T16:38:46.365Z,20.48
2017-05-03T16:41:15.771Z,16.36
2017-05-03T16:43:44.159Z,16.90
2017-05-03T16:46:12.805Z,17.38
2017-05-03T16:48:41.186Z,15.50
2017-05-03T16:51:09.679Z,14.98
2017-05-03T16:53:38.043Z,16.16
2017-05-03T16:56:06.708Z,16.64
2017-05-03T16:58:35.841Z,14.88
2017-05-03T17:01:04.200Z,16.82
2017-05-03T17:03:32.600Z,15.84
2017-05-03T17:06:00.999Z,13.90
2017-05-03T17:08:29.350Z,18.56
2017-05-03T17:10:57.717Z,16.34
2017-05-03T17:13:26.120Z,14.82
2017-05-03T17:15:54.488Z,18.10
2017-05-03T17:18:22.875Z,13.82
2017-05-03T17:20:51.240Z,15.94
2017-05-03T17:23:20.028Z,13.14
2017-05-03T17:25:48.441Z,18.94
2017-05-03T17:28:16.809Z,17.04
2017-05-03T17:30:45.463Z,15.60
2017-05-03T17:33:13.826Z,11.90
2017-05-03T17:35:42.186Z,12.22
2017-05-03T17:38:10.867Z,12.80
2017-05-03T17:40:40.130Z,13.44
2017-05-03T17:43:08.495Z,12.30
2017-05-03T17:45:37.244Z,11.98
2017-05-03T17:48:05.622Z,11.82
2017-05-03T17:50:33.971Z,11.76
2017-05-03T17:53:02.364Z,11.36
2017-05-03T17:55:31.490Z,9.60
2017-05-03T17:57:59.956Z,11.02
2017-05-03T18:00:28.340Z,10.52
2017-05-03T18:02:56.697Z,11.94
2017-05-03T18:05:26.099Z,9.96
2017-05-03T18:07:54.450Z,10.76
2017-05-03T18:10:22.819Z,11.96
2017-05-03T18:12:51.468Z,11.20
2017-05-03T18:15:29.897Z,9.84
2017-05-03T18:17:58.270Z,11.50
2017-05-03T18:20:26.682Z,9.92
2017-05-03T18:22:55.044Z,8.82
2017-05-03T18:25:23.408Z,9.52
2017-05-03T18:27:51.785Z,8.02
2017-05-03T18:30:20.180Z,7.88
2017-05-03T18:32:48.539Z,10.28
2017-05-03T18:35:16.932Z,8.76
2017-05-03T18:37:45.277Z,7.98
2017-05-03T18:40:13.782Z,9.72
2017-05-03T18:42:42.093Z,8.90
2017-05-03T18:45:10.481Z,12.56
2017-05-03T18:47:39.965Z,9.78
2017-05-03T18:50:08.766Z,7.98
2017-05-03T18:52:37.866Z,7.02
2017-05-03T18:55:06.244Z,8.14
2017-05-03T18:57:34.625Z,6.20
2017-05-03T19:00:03.735Z,7.96
2017-05-03T19:02:32.104Z,7.00
2017-05-03T19:05:01.663Z,8.68
2017-05-03T19:07:29.995Z,10.10
2017-05-03T19:09:58.354Z,7.38
2017-05-03T19:12:27.813Z,10.42
2017-05-03T19:14:56.178Z,6.44
2017-05-03T19:17:24.533Z,8.52
2017-05-03T19:19:52.934Z,6.56
2017-05-03T19:22:21.313Z,9.98
2017-05-03T19:24:49.720Z,7.66
2017-05-03T19:27:18.102Z,8.42
2017-05-03T19:29:46.472Z,8.06
2017-05-03T19:32:14.857Z,8.26
2017-05-03T19:34:43.212Z,6.94
2017-05-03T19:37:11.617Z,9.76
2017-05-03T19:39:39.977Z,6.72
2017-05-03T19:42:08.453Z,6.80
2017-05-03T19:44:36.958Z,5.36
2017-05-03T19:47:05.362Z,7.16
2017-05-03T19:49:33.717Z,5.96
2017-05-03T19:52:02.133Z,6.16
2017-05-03T19:54:30.504Z,4.72
2017-05-03T19:56:58.847Z,4.06
2017-05-03T19:59:27.444Z,5.58
2017-05-03T20:01:56.540Z,4.68
2017-05-03T20:04:26.511Z,6.90
2017-05-03T20:06:54.869Z,6.52
2017-05-03T20:09:23.224Z,4.60
2017-05-03T20:11:51.587Z,7.42
2017-05-03T20:14:20.701Z,6.78
2017-05-03T20:16:49.113Z,5.60
2017-05-03T20:19:17.602Z,4.60
2017-05-03T20:21:46.342Z,4.72
2017-05-03T20:24:14.723Z,7.30
2017-05-03T20:26:43.082Z,5.76
2017-05-03T20:29:12.240Z,6.52
2017-05-03T20:31:42.236Z,5.26
2017-05-03T20:34:10.991Z,5.24
2017-05-03T20:36:39.360Z,5.92
2017-05-03T20:39:08.454Z,8.66
2017-05-03T20:41:36.818Z,5.72
2017-05-03T20:44:05.197Z,7.34
2017-05-03T20:46:34.321Z,5.38
2017-05-03T20:49:02.710Z,5.42
2017-05-03T20:51:31.055Z,5.44
2017-05-03T20:54:00.233Z,5.10
2017-05-03T20:56:28.573Z,5.58
2017-05-03T20:58:56.928Z,4.14
2017-05-03T21:01:25.331Z,5.48
2017-05-03T21:03:53.966Z,4.88
2017-05-03T21:06:22.336Z,4.22
2017-05-03T21:08:50.685Z,5.62
2017-05-03T21:11:19.063Z,4.52
2017-05-03T21:13:47.424Z,4.44
2017-05-03T21:16:16.142Z,3.80
2017-05-03T21:18:44.494Z,5.24
2017-05-03T21:21:12.829Z,4.94
2017-05-03T21:23:41.627Z,4.78
2017-05-03T21:26:09.994Z,4.84
2017-05-03T21:28:38.356Z,5.82
2017-05-03T21:31:07.882Z,5.04
2017-05-03T21:33:36.320Z,6.48
2017-05-03T21:36:04.654Z,6.18
2017-05-03T21:38:33.406Z,4.84
2017-05-03T21:41:02.542Z,5.44
2017-05-03T21:43:30.980Z,6.52
2017-05-03T21:45:59.350Z,5.26
2017-05-03T21:48:27.710Z,5.34
2017-05-03T21:50:56.043Z,6.04
2017-05-03T21:53:24.389Z,6.40
2017-05-03T21:55:52.732Z,4.58
2017-05-03T21:58:21.102Z,7.70
2017-05-03T22:00:49.464Z,3.78
2017-05-03T22:03:18.181Z,3.28
2017-05-03T22:05:46.540Z,4.82
2017-05-03T22:08:14.878Z,5.12
2017-05-03T22:10:43.240Z,4.44
2017-05-03T22:13:11.602Z,5.66
2017-05-03T22:15:40.728Z,5.14
2017-05-03T22:18:09.251Z,4.94
2017-05-03T22:20:37.599Z,3.84
2017-05-03T22:23:05.970Z,5.46
2017-05-03T22:25:34.309Z,5.66
2017-05-03T22:28:02.712Z,6.56
2017-05-03T22:30:31.070Z,5.18
2017-05-03T22:33:00.185Z,6.20
2017-05-03T22:35:28.540Z,5.36
2017-05-03T22:37:57.619Z,5.52
2017-05-03T22:40:26.355Z,4.58
2017-05-03T22:42:54.701Z,5.84
2017-05-03T22:45:23.061Z,7.46
2017-05-03T22:47:51.423Z,5.76
2017-05-03T22:50:19.897Z,4.06
2017-05-03T22:52:48.259Z,7.44
2017-05-03T22:55:17.497Z,6.56
2017-05-03T22:57:45.833Z,3.88
2017-05-03T23:00:14.197Z,7.16
2017-05-03T23:02:42.538Z,5.86
2017-05-03T23:05:11.887Z,5.84
2017-05-03T23:07:40.252Z,8.04
2017-05-03T23:10:08.655Z,6.70
2017-05-03T23:12:37.035Z,4.92
2017-05-03T23:15:05.379Z,4.90
2017-05-03T23:17:33.746Z,4.98
2017-05-03T23:20:02.093Z,5.18
2017-05-03T23:22:30.447Z,4.88
2017-05-03T23:24:58.862Z,6.98
2017-05-03T23:27:27.946Z,6.50
2017-05-03T23:29:57.053Z,3.82
2017-05-03T23:32:26.135Z,4.92
2017-05-03T23:34:55.258Z,3.40
2017-05-03T23:37:23.628Z,4.84
2017-05-03T23:39:51.974Z,4.76
2017-05-03T23:42:20.342Z,4.28
2017-05-03T23:44:48.673Z,5.94
2017-05-03T23:47:17.022Z,5.74
2017-05-03T23:49:46.132Z,4.62
2017-05-03T23:52:14.468Z,5.64
2017-05-03T23:54:42.848Z,3.90
2017-05-03T23:57:11.998Z,4.02
2017-05-03T23:59:40.426Z,8.32
